createdAt,value
2017-07-21T00:01:40.325Z,9.10
2017-07-21T00:04:07.781Z,8.13
2017-07-21T00:06:35.213Z,9.60
2017-07-21T00:09:02.668Z,8.13
2017-07-21T00:11:30.094Z,9.57
2017-07-21T00:13:57.552Z,9.03
2017-07-21T00:16:24.993Z,8.50
2017-07-21T00:18:52.436Z,9.60
2017-07-21T00:21:19.875Z,8.97
2017-07-21T00:23:47.315Z,9.57
2017-07-21T00:26:14.752Z,11.37
2017-07-21T00:28:42.185Z,8.30
2017-07-21T00:31:09.641Z,7.70
2017-07-21T00:33:37.080Z,9.27
2017-07-21T00:36:04.530Z,8.00
2017-07-21T00:38:31.968Z,9.37
2017-07-21T00:40:59.406Z,9.70
2017-07-21T00:43:26.849Z,10.00
2017-07-21T00:45:54.281Z,8.37
2017-07-21T00:48:21.723Z,10.23
2017-07-21T00:50:49.184Z,7.90
2017-07-21T00:53:16.628Z,8.53
2017-07-21T00:55:44.072Z,8.77
2017-07-21T00:58:11.538Z,8.33
2017-07-21T01:00:38.990Z,9.93
2017-07-21T01:03:06.421Z,9.47
2017-07-21T01:05:33.946Z,9.20
2017-07-21T01:08:01.390Z,9.40
2017-07-21T01:10:28.895Z,10.40
2017-07-21T01:12:56.353Z,8.97
2017-07-21T01:15:23.779Z,9.80
2017-07-21T01:17:51.294Z,9.70
2017-07-21T01:20:18.734Z,9.23
2017-07-21T01:22:46.182Z,9.27
2017-07-21T01:25:13.725Z,9.17
2017-07-21T01:27:41.152Z,8.03
2017-07-21T01:30:08.591Z,8.97
2017-07-21T01:32:36.030Z,8.80
2017-07-21T01:35:03.451Z,9.10
2017-07-21T01:37:30.945Z,9.80
2017-07-21T01:39:58.396Z,10.27
2017-07-21T01:42:26.589Z,9.23
2017-07-21T01:44:54.069Z,10.00
2017-07-21T01:47:21.517Z,9.70
2017-07-21T01:49:48.951Z,9.27
2017-07-21T01:52:16.397Z,8.80
2017-07-21T01:54:43.832Z,9.43
2017-07-21T01:57:11.315Z,8.67
2017-07-21T01:59:38.740Z,8.73
2017-07-21T02:02:06.180Z,9.83
2017-07-21T02:04:33.625Z,9.87
2017-07-21T02:07:01.060Z,9.80
2017-07-21T02:09:28.502Z,9.10
2017-07-21T02:11:55.965Z,9.37
2017-07-21T02:14:23.413Z,9.40
2017-07-21T02:16:50.851Z,8.97
2017-07-21T02:19:18.280Z,10.10
2017-07-21T02:21:45.726Z,9.53
2017-07-21T02:24:13.154Z,9.60
2017-07-21T02:26:40.587Z,8.83
2017-07-21T02:29:08.033Z,8.10
2017-07-21T02:31:35.460Z,8.47
2017-07-21T02:34:02.956Z,9.37
2017-07-21T02:36:30.505Z,8.60
2017-07-21T02:38:57.954Z,7.37
2017-07-21T02:41:25.481Z,8.53
2017-07-21T02:43:52.908Z,9.13
2017-07-21T02:46:20.356Z,8.47
2017-07-21T02:48:47.788Z,8.67
2017-07-21T02:51:15.217Z,9.53
2017-07-21T02:53:42.701Z,8.83
2017-07-21T02:56:10.137Z,12.40
2017-07-21T02:58:37.599Z,9.77
2017-07-21T03:01:05.037Z,8.73
2017-07-21T03:03:32.477Z,10.50
2017-07-21T03:05:59.917Z,10.80
2017-07-21T03:08:27.340Z,9.20
2017-07-21T03:10:54.788Z,10.00
2017-07-21T03:13:22.264Z,9.87
2017-07-21T03:15:50.460Z,9.40
2017-07-21T03:18:17.891Z,10.20
2017-07-21T03:20:46.348Z,9.80
2017-07-21T03:23:22.710Z,11.83
2017-07-21T03:25:50.195Z,10.30
2017-07-21T03:28:17.653Z,10.40
2017-07-21T03:30:45.213Z,11.60
2017-07-21T03:33:12.627Z,10.63
2017-07-21T03:35:40.073Z,10.20
2017-07-21T03:38:07.613Z,10.30
2017-07-21T03:40:35.159Z,10.40
2017-07-21T03:43:02.600Z,11.60
2017-07-21T03:45:30.037Z,10.43
2017-07-21T03:47:57.667Z,11.33
2017-07-21T03:50:25.114Z,10.63
2017-07-21T03:52:52.585Z,10.60
2017-07-21T03:55:20.053Z,11.10
2017-07-21T03:57:47.621Z,10.50
2017-07-21T04:00:15.081Z,11.60
2017-07-21T04:02:42.619Z,11.97
2017-07-21T04:05:10.056Z,12.63
2017-07-21T04:07:37.505Z,11.90
2017-07-21T04:10:04.947Z,12.33
2017-07-21T04:12:32.403Z,10.93
2017-07-21T04:14:59.953Z,12.40
2017-07-21T04:17:27.385Z,11.23
2017-07-21T04:19:54.837Z,12.50
2017-07-21T04:22:22.273Z,10.30
2017-07-21T04:24:49.747Z,14.47
2017-07-21T04:27:17.189Z,12.67
2017-07-21T04:29:45.381Z,9.50
2017-07-21T04:32:12.859Z,11.63
2017-07-21T04:34:40.360Z,10.83
2017-07-21T04:37:07.896Z,10.60
2017-07-21T04:39:35.398Z,11.10
2017-07-21T04:42:02.829Z,10.40
2017-07-21T04:44:30.278Z,9.23
2017-07-21T04:46:57.720Z,10.60
2017-07-21T04:49:25.163Z,11.57
2017-07-21T04:51:52.601Z,10.93
2017-07-21T04:54:20.032Z,9.20
2017-07-21T04:56:48.240Z,11.03
2017-07-21T04:59:15.671Z,10.90
2017-07-21T05:01:43.138Z,11.23
2017-07-21T05:04:10.573Z,10.60
2017-07-21T05:06:38.009Z,10.53
2017-07-21T05:09:05.481Z,10.33
2017-07-21T05:11:33.037Z,10.57
2017-07-21T05:14:01.285Z,11.17
2017-07-21T05:16:28.840Z,11.53
2017-07-21T05:18:57.097Z,9.70
2017-07-21T05:21:24.658Z,12.60
2017-07-21T05:23:52.860Z,10.20
2017-07-21T05:26:20.341Z,8.70
2017-07-21T05:28:47.884Z,10.47
2017-07-21T05:31:15.424Z,8.30
2017-07-21T05:33:42.864Z,8.27
2017-07-21T05:36:10.296Z,7.77
2017-07-21T05:38:37.774Z,7.30
2017-07-21T05:41:05.972Z,7.03
2017-07-21T05:43:33.408Z,7.83
2017-07-21T05:46:00.840Z,6.67
2017-07-21T05:48:28.284Z,7.43
2017-07-21T05:50:55.861Z,7.33
2017-07-21T05:53:23.279Z,6.90
2017-07-21T05:55:50.773Z,7.37
2017-07-21T05:58:18.216Z,6.40
2017-07-21T06:00:45.643Z,7.57
2017-07-21T06:03:13.104Z,7.13
2017-07-21T06:05:40.635Z,6.13
2017-07-21T06:08:08.084Z,6.13
2017-07-21T06:10:35.559Z,6.20
2017-07-21T06:13:03.801Z,6.60
2017-07-21T06:15:33.280Z,5.80
2017-07-21T06:18:00.719Z,6.43
2017-07-21T06:20:28.171Z,5.47
2017-07-21T06:22:55.604Z,5.00
2017-07-21T06:25:23.027Z,5.90
2017-07-21T06:27:50.491Z,5.30
2017-07-21T06:30:17.937Z,6.70
2017-07-21T06:32:45.380Z,5.70
2017-07-21T06:35:12.851Z,6.23
2017-07-21T06:37:41.052Z,5.77
2017-07-21T06:40:08.493Z,5.53
2017-07-21T06:42:35.919Z,6.60
2017-07-21T06:45:03.386Z,5.20
2017-07-21T06:47:30.817Z,7.30
2017-07-21T06:49:58.270Z,6.93
2017-07-21T06:52:25.703Z,7.60
2017-07-21T06:54:53.144Z,7.00
2017-07-21T06:57:20.606Z,8.37
2017-07-21T06:59:48.070Z,5.70
2017-07-21T07:02:15.498Z,8.60
2017-07-21T07:04:43.804Z,5.10
2017-07-21T07:07:12.032Z,6.87
2017-07-21T07:09:39.581Z,5.90
2017-07-21T07:12:07.032Z,6.70
2017-07-21T07:14:34.510Z,4.80
2017-07-21T07:17:01.996Z,6.80
2017-07-21T07:19:29.453Z,5.70
2017-07-21T07:21:56.917Z,5.40
2017-07-21T07:24:25.160Z,4.50
2017-07-21T07:26:52.603Z,9.67
2017-07-21T07:29:20.041Z,6.17
2017-07-21T07:31:47.592Z,5.60
2017-07-21T07:34:15.041Z,4.63
2017-07-21T07:36:42.481Z,4.03
2017-07-21T07:39:09.916Z,4.13
2017-07-21T07:41:37.442Z,3.90
2017-07-21T07:44:04.880Z,4.90
2017-07-21T07:46:32.353Z,4.13
2017-07-21T07:48:59.790Z,5.73
2017-07-21T07:51:27.335Z,5.03
2017-07-21T07:53:54.857Z,4.47
2017-07-21T07:56:22.288Z,3.90
2017-07-21T07:58:49.761Z,5.33
2017-07-21T08:01:17.202Z,3.50
2017-07-21T08:03:44.633Z,3.83
2017-07-21T08:06:12.557Z,4.20
2017-07-21T08:08:40.017Z,5.10
2017-07-21T08:11:07.452Z,3.40
2017-07-21T08:13:34.872Z,3.30
2017-07-21T08:16:02.305Z,4.03
2017-07-21T08:18:29.746Z,4.40
2017-07-21T08:20:57.265Z,4.50
2017-07-21T08:23:24.725Z,5.13
2017-07-21T08:25:52.919Z,3.67
2017-07-21T08:28:20.352Z,3.77
2017-07-21T08:30:47.794Z,3.93
2017-07-21T08:33:15.224Z,3.57
2017-07-21T08:35:42.680Z,2.67
2017-07-21T08:38:10.176Z,3.27
2017-07-21T08:40:37.639Z,4.43
2017-07-21T08:43:05.838Z,3.60
2017-07-21T08:45:33.270Z,6.17
2017-07-21T08:48:00.750Z,3.73
2017-07-21T08:50:28.184Z,3.63
2017-07-21T08:52:55.616Z,3.73
2017-07-21T08:55:23.137Z,3.93
2017-07-21T08:57:50.632Z,3.10
2017-07-21T09:00:18.920Z,4.23
2017-07-21T09:02:47.123Z,3.00
2017-07-21T09:05:14.565Z,4.07
2017-07-21T09:07:42.056Z,4.40
2017-07-21T09:10:09.489Z,3.50
2017-07-21T09:12:36.937Z,3.53
2017-07-21T09:15:04.381Z,4.00
2017-07-21T09:17:31.824Z,3.43
2017-07-21T09:20:00.097Z,3.27
2017-07-21T09:22:27.521Z,4.30
2017-07-21T09:24:55.084Z,3.90
2017-07-21T09:27:23.276Z,4.53
2017-07-21T09:29:50.708Z,4.33
2017-07-21T09:32:18.204Z,3.90
2017-07-21T09:34:45.636Z,3.27
2017-07-21T09:37:13.095Z,4.57
2017-07-21T09:39:40.644Z,3.43
2017-07-21T09:42:08.097Z,4.37
2017-07-21T09:44:36.362Z,4.43
2017-07-21T09:47:03.829Z,3.00
2017-07-21T09:49:31.256Z,6.23
2017-07-21T09:51:59.527Z,5.07
2017-07-21T09:54:27.844Z,3.53
2017-07-21T09:56:55.286Z,6.10
2017-07-21T09:59:22.732Z,6.47
2017-07-21T10:01:50.164Z,4.00
2017-07-21T10:04:17.696Z,3.70
2017-07-21T10:06:45.129Z,3.77
2017-07-21T10:09:12.576Z,2.53
2017-07-21T10:11:40.054Z,3.70
2017-07-21T10:14:07.495Z,3.67
2017-07-21T10:16:35.040Z,3.17
2017-07-21T10:19:02.483Z,3.10
2017-07-21T10:21:29.916Z,3.63
2017-07-21T10:23:57.381Z,3.70
2017-07-21T10:26:24.817Z,3.13
2017-07-21T10:28:52.257Z,3.40
2017-07-21T10:31:19.689Z,3.20
2017-07-21T10:33:47.237Z,4.80
2017-07-21T10:36:14.673Z,3.10
2017-07-21T10:38:42.101Z,3.00
2017-07-21T10:41:09.590Z,2.93
2017-07-21T10:43:37.836Z,3.00
2017-07-21T10:46:05.371Z,2.70
2017-07-21T10:48:32.949Z,3.73
2017-07-21T10:51:00.460Z,4.30
2017-07-21T10:53:27.909Z,3.13
2017-07-21T10:55:55.333Z,3.13
2017-07-21T10:58:22.796Z,3.77
2017-07-21T11:00:50.220Z,10.00
2017-07-21T11:03:17.671Z,3.10
2017-07-21T11:05:45.115Z,5.50
2017-07-21T11:08:12.566Z,5.50
2017-07-21T11:10:40.013Z,4.47
2017-07-21T11:13:07.457Z,5.30
2017-07-21T11:15:34.904Z,3.77
2017-07-21T11:18:02.331Z,3.47
2017-07-21T11:20:29.995Z,3.93
2017-07-21T11:22:58.262Z,3.60
2017-07-21T11:25:25.691Z,3.50
2017-07-21T11:27:53.575Z,3.67
2017-07-21T11:30:21.025Z,5.43
2017-07-21T11:32:48.577Z,4.77
2017-07-21T11:35:16.055Z,4.20
2017-07-21T11:37:43.487Z,3.20
2017-07-21T11:40:10.954Z,5.83
2017-07-21T11:42:38.384Z,3.27
2017-07-21T11:45:05.841Z,4.50
2017-07-21T11:47:33.384Z,2.77
2017-07-21T11:50:03.277Z,2.90
2017-07-21T11:52:30.748Z,3.13
2017-07-21T11:54:58.259Z,3.10
2017-07-21T11:57:26.314Z,2.80
2017-07-21T11:59:53.777Z,3.73
2017-07-21T12:02:21.317Z,4.53
2017-07-21T12:04:48.861Z,3.77
2017-07-21T12:07:16.305Z,5.70
2017-07-21T12:09:43.869Z,3.83
2017-07-21T12:12:12.103Z,4.30
2017-07-21T12:14:39.664Z,3.03
2017-07-21T12:17:07.105Z,3.17
2017-07-21T12:19:34.639Z,3.20
2017-07-21T12:22:02.308Z,3.23
2017-07-21T12:24:30.499Z,3.10
2017-07-21T12:26:57.927Z,3.90
2017-07-21T12:29:25.377Z,3.87
2017-07-21T12:31:52.796Z,2.77
2017-07-21T12:34:21.004Z,3.50
2017-07-21T12:36:48.431Z,3.80
2017-07-21T12:39:16.039Z,3.53
2017-07-21T12:41:44.260Z,5.97
2017-07-21T12:44:11.762Z,8.60
2017-07-21T12:46:39.231Z,3.97
2017-07-21T12:49:06.669Z,4.20
2017-07-21T12:51:34.172Z,3.40
2017-07-21T12:54:01.745Z,3.13
2017-07-21T12:56:29.260Z,4.83
2017-07-21T12:58:56.692Z,2.93
2017-07-21T13:01:24.129Z,3.03
2017-07-21T13:03:51.594Z,3.03
2017-07-21T13:06:20.003Z,6.77
2017-07-21T13:08:47.457Z,2.77
2017-07-21T13:11:15.596Z,4.00
2017-07-21T13:13:43.177Z,3.50
2017-07-21T13:16:10.683Z,4.67
2017-07-21T13:18:38.135Z,5.17
2017-07-21T13:21:05.657Z,3.03
2017-07-21T13:23:33.880Z,3.40
2017-07-21T13:26:01.319Z,3.10
2017-07-21T13:28:28.743Z,3.77
2017-07-21T13:30:56.214Z,2.77
2017-07-21T13:33:24.076Z,3.30
2017-07-21T13:35:52.276Z,3.27
2017-07-21T13:38:19.717Z,2.80
2017-07-21T13:40:47.213Z,3.80
2017-07-21T13:43:14.679Z,3.87
2017-07-21T13:45:42.129Z,3.70
2017-07-21T13:48:09.708Z,4.27
2017-07-21T13:50:37.174Z,3.23
2017-07-21T13:53:04.612Z,3.20
2017-07-21T13:55:32.045Z,3.93
2017-07-21T13:57:59.505Z,5.20
2017-07-21T14:00:27.284Z,8.93
2017-07-21T14:02:56.174Z,3.07
2017-07-21T14:05:24.366Z,5.67
2017-07-21T14:07:51.797Z,3.43
2017-07-21T14:10:19.236Z,3.70
2017-07-21T14:12:46.997Z,3.17
2017-07-21T14:15:14.469Z,3.97
2017-07-21T14:17:42.091Z,3.93
2017-07-21T14:20:09.689Z,3.60
2017-07-21T14:22:37.898Z,4.97
2017-07-21T14:25:05.388Z,3.00
2017-07-21T14:27:33.220Z,3.73
2017-07-21T14:30:01.061Z,3.73
2017-07-21T14:32:28.597Z,3.40
2017-07-21T14:34:56.064Z,3.83
2017-07-21T14:37:23.504Z,3.10
2017-07-21T14:39:50.943Z,4.43
2017-07-21T14:42:18.480Z,3.00
2017-07-21T14:44:45.929Z,4.37
2017-07-21T14:47:13.474Z,3.30
2017-07-21T14:49:40.961Z,4.20
2017-07-21T14:52:09.791Z,4.83
2017-07-21T14:54:37.249Z,5.00
2017-07-21T14:57:04.675Z,3.73
2017-07-21T14:59:32.240Z,3.03
2017-07-21T15:01:59.672Z,4.07
2017-07-21T15:04:27.129Z,3.50
2017-07-21T15:06:55.351Z,2.90
2017-07-21T15:09:22.792Z,4.40
2017-07-21T15:11:50.383Z,4.10
2017-07-21T15:14:18.635Z,3.67
2017-07-21T15:16:46.115Z,3.87
2017-07-21T15:19:13.547Z,3.63
2017-07-21T15:21:41.075Z,4.37
2017-07-21T15:24:09.309Z,3.40
2017-07-21T15:26:36.740Z,3.67
2017-07-21T15:29:04.505Z,3.67
2017-07-21T15:31:31.958Z,4.90
2017-07-21T15:33:59.392Z,4.17
2017-07-21T15:36:26.840Z,4.60
2017-07-21T15:38:54.272Z,4.67
2017-07-21T15:41:21.728Z,3.47
2017-07-21T15:43:49.245Z,3.90
2017-07-21T15:46:16.677Z,3.40
2017-07-21T15:48:44.131Z,4.47
2017-07-21T15:51:11.593Z,4.00
2017-07-21T15:53:39.041Z,5.57
2017-07-21T15:56:06.469Z,3.50
2017-07-21T15:58:33.998Z,4.17
2017-07-21T16:01:01.532Z,3.57
2017-07-21T16:03:29.014Z,3.40
2017-07-21T16:05:57.223Z,6.10
2017-07-21T16:08:24.662Z,5.63
2017-07-21T16:10:52.113Z,3.60
2017-07-21T16:13:19.552Z,5.13
2017-07-21T16:15:47.053Z,4.53
2017-07-21T16:18:14.464Z,3.97
2017-07-21T16:20:41.954Z,3.47
2017-07-21T16:23:10.180Z,4.60
2017-07-21T16:25:37.621Z,4.20
2017-07-21T16:28:05.073Z,3.83
2017-07-21T16:30:32.503Z,3.83
2017-07-21T16:32:59.948Z,4.03
2017-07-21T16:35:27.396Z,5.43
2017-07-21T16:37:55.006Z,4.70
2017-07-21T16:40:22.502Z,4.40
2017-07-21T16:42:49.932Z,4.13
2017-07-21T16:45:17.368Z,3.90
2017-07-21T16:47:44.834Z,5.00
2017-07-21T16:50:13.081Z,3.87
2017-07-21T16:52:40.574Z,6.73
2017-07-21T16:55:08.045Z,5.17
2017-07-21T16:57:35.510Z,4.60
2017-07-21T17:00:02.962Z,3.93
2017-07-21T17:02:30.396Z,4.63
2017-07-21T17:04:58.026Z,4.60
2017-07-21T17:07:25.508Z,4.80
2017-07-21T17:09:53.749Z,4.03
2017-07-21T17:12:21.215Z,4.20
2017-07-21T17:14:49.813Z,5.80
2017-07-21T17:17:17.271Z,5.60
2017-07-21T17:19:44.713Z,5.57
2017-07-21T17:22:12.220Z,5.17
2017-07-21T17:24:39.684Z,5.10
2017-07-21T17:27:07.141Z,5.13
2017-07-21T17:29:34.627Z,5.10
2017-07-21T17:32:02.293Z,5.77
2017-07-21T17:34:31.668Z,4.80
2017-07-21T17:36:59.872Z,7.63
2017-07-21T17:39:27.307Z,4.70
2017-07-21T17:41:54.792Z,5.70
2017-07-21T17:44:22.240Z,5.33
2017-07-21T17:46:49.720Z,5.57
2017-07-21T17:49:17.155Z,5.57
2017-07-21T17:51:44.583Z,5.30
2017-07-21T17:54:12.024Z,4.17
2017-07-21T17:56:40.282Z,4.30
2017-07-21T17:59:07.825Z,5.37
2017-07-21T18:01:35.281Z,4.67
2017-07-21T18:04:03.484Z,5.00
2017-07-21T18:06:30.984Z,4.87
2017-07-21T18:08:59.248Z,10.67
2017-07-21T18:11:26.735Z,10.90
2017-07-21T18:13:54.219Z,6.80
2017-07-21T18:16:21.651Z,5.63
2017-07-21T18:18:49.097Z,5.97
2017-07-21T18:21:17.364Z,6.00
2017-07-21T18:23:44.815Z,6.13
2017-07-21T18:26:12.249Z,6.57
2017-07-21T18:28:39.697Z,5.70
2017-07-21T18:31:07.129Z,5.50
2017-07-21T18:33:34.563Z,6.43
2017-07-21T18:36:02.022Z,5.03
2017-07-21T18:38:30.237Z,8.43
2017-07-21T18:40:57.679Z,6.20
2017-07-21T18:43:25.325Z,5.10
2017-07-21T18:45:52.761Z,5.47
2017-07-21T18:48:20.887Z,6.00
2017-07-21T18:50:49.097Z,6.43
2017-07-21T18:53:16.528Z,5.90
2017-07-21T18:55:44.013Z,5.70
2017-07-21T18:58:11.452Z,5.40
2017-07-21T19:00:39.000Z,4.40
2017-07-21T19:03:06.432Z,4.67
2017-07-21T19:05:33.876Z,4.60
2017-07-21T19:08:01.333Z,4.87
2017-07-21T19:10:28.795Z,5.33
2017-07-21T19:12:56.997Z,5.00
2017-07-21T19:15:24.436Z,5.43
2017-07-21T19:17:51.869Z,4.73
2017-07-21T19:20:19.312Z,7.70
2017-07-21T19:22:46.751Z,4.40
2017-07-21T19:25:14.192Z,5.70
2017-07-21T19:27:41.632Z,4.03
2017-07-21T19:30:09.066Z,6.57
2017-07-21T19:32:36.514Z,6.97
2017-07-21T19:35:04.576Z,6.63
2017-07-21T19:37:32.412Z,6.27
2017-07-21T19:40:00.620Z,6.50
2017-07-21T19:42:28.057Z,5.43
2017-07-21T19:44:55.516Z,5.33
2017-07-21T19:47:22.937Z,4.83
2017-07-21T19:49:50.382Z,4.40
2017-07-21T19:52:17.799Z,7.27
2017-07-21T19:54:45.241Z,9.20
2017-07-21T19:57:12.687Z,6.73
2017-07-21T19:59:40.187Z,5.30
2017-07-21T20:02:07.751Z,5.57
2017-07-21T20:04:35.997Z,5.90
2017-07-21T20:07:03.432Z,5.40
2017-07-21T20:09:30.881Z,5.27
2017-07-21T20:11:58.312Z,9.80
2017-07-21T20:14:25.748Z,4.33
2017-07-21T20:16:53.175Z,8.20
2017-07-21T20:19:20.637Z,4.87
2017-07-21T20:21:48.083Z,5.70
2017-07-21T20:24:15.524Z,6.83
2017-07-21T20:26:42.943Z,5.37
2017-07-21T20:29:10.421Z,5.00
2017-07-21T20:31:37.849Z,5.20
2017-07-21T20:34:05.309Z,5.13
2017-07-21T20:36:32.755Z,6.60
2017-07-21T20:39:00.981Z,5.70
2017-07-21T20:41:28.423Z,4.93
2017-07-21T20:43:55.961Z,5.37
2017-07-21T20:46:23.392Z,4.53
2017-07-21T20:48:50.836Z,5.47
2017-07-21T20:51:18.281Z,6.23
2017-07-21T20:53:45.735Z,6.87
2017-07-21T20:56:13.162Z,9.60
2017-07-21T20:58:40.657Z,6.30
2017-07-21T21:01:08.197Z,6.10
2017-07-21T21:03:35.743Z,7.20
2017-07-21T21:06:03.224Z,5.50
2017-07-21T21:08:31.400Z,5.40
2017-07-21T21:10:58.854Z,5.90
2017-07-21T21:13:26.285Z,7.73
2017-07-21T21:15:53.753Z,6.10
2017-07-21T21:18:21.325Z,6.30
2017-07-21T21:20:48.834Z,8.80
2017-07-21T21:23:16.265Z,5.93
2017-07-21T21:25:43.713Z,8.27
2017-07-21T21:28:11.188Z,8.20
2017-07-21T21:30:38.653Z,7.20
2017-07-21T21:33:06.842Z,6.17
2017-07-21T21:35:34.305Z,15.77
2017-07-21T21:38:01.761Z,9.27
2017-07-21T21:40:29.224Z,6.93
2017-07-21T21:42:56.710Z,7.93
2017-07-21T21:45:24.131Z,9.60
2017-07-21T21:47:52.341Z,5.97
2017-07-21T21:50:19.767Z,6.60
2017-07-21T21:52:47.221Z,6.63
2017-07-21T21:55:14.660Z,6.23
2017-07-21T21:57:42.099Z,7.87
2017-07-21T22:00:09.541Z,14.47
2017-07-21T22:02:37.004Z,8.40
2017-07-21T22:05:04.509Z,6.20
2017-07-21T22:07:32.256Z,6.50
2017-07-21T22:10:00.492Z,6.00
2017-07-21T22:12:28.707Z,6.53
2017-07-21T22:14:56.159Z,8.27
2017-07-21T22:17:23.630Z,9.80
2017-07-21T22:19:51.062Z,6.50
2017-07-21T22:22:18.501Z,5.13
2017-07-21T22:24:45.932Z,5.30
2017-07-21T22:27:13.360Z,5.23
2017-07-21T22:29:40.806Z,5.33
2017-07-21T22:32:08.240Z,5.80
2017-07-21T22:34:35.693Z,6.23
2017-07-21T22:37:03.127Z,5.37
2017-07-21T22:39:30.556Z,6.17
2017-07-21T22:41:57.995Z,6.37
2017-07-21T22:44:25.441Z,4.30
2017-07-21T22:46:52.883Z,4.00
2017-07-21T22:49:20.315Z,6.07
2017-07-21T22:51:47.770Z,3.40
2017-07-21T22:54:15.217Z,19.33
2017-07-21T22:56:42.656Z,5.30
2017-07-21T22:59:10.130Z,2.97
2017-07-21T23:01:37.696Z,2.77
2017-07-21T23:04:05.479Z,3.33
2017-07-21T23:06:33.669Z,2.10
2017-07-21T23:09:01.141Z,2.83
2017-07-21T23:11:28.596Z,3.93
2017-07-21T23:13:56.020Z,4.77
2017-07-21T23:16:23.457Z,2.80
2017-07-21T23:18:50.893Z,2.40
2017-07-21T23:21:18.333Z,3.40
2017-07-21T23:23:45.777Z,3.10
2017-07-21T23:26:13.208Z,2.77
2017-07-21T23:28:40.646Z,2.10
2017-07-21T23:31:08.083Z,3.40
2017-07-21T23:33:35.507Z,9.60
2017-07-21T23:36:02.952Z,2.73
2017-07-21T23:38:30.385Z,2.67
2017-07-21T23:40:57.848Z,3.63
2017-07-21T23:43:25.336Z,3.30
2017-07-21T23:45:52.785Z,3.47
2017-07-21T23:48:20.232Z,1.70
2017-07-21T23:50:47.786Z,4.10
2017-07-21T23:53:15.984Z,3.57
2017-07-21T23:55:43.422Z,1.70
2017-07-21T23:58:10.917Z,2.43
